Time;durP1;ratioP1;P1;durP2;ratioP2;P2;SDS_P1;SDS_P2;PMS_P1;PMS_P2;Temp;Humidity;BMP_temperature;BMP_pressure;BME280_temperature;BME280_humidity;BME280_pressure;Samples;Min_cycle;Max_cycle;Signal;HPM_P1;HPM_P2
2022/01/05 14:15:59;;;;;;;11.75;7.42;;;;;;;6.94;82.11;98046.70;1764228;79;23326;-57
2022/01/05 14:18:26;;;;;;;8.55;6.35;;;;;;;6.95;82.21;98043.17;1737977;81;21072;-59
2022/01/05 14:20:53;;;;;;;8.50;6.33;;;;;;;7.15;82.22;98056.45;1731721;81;21800;-58
2022/01/05 14:23:24;;;;;;;7.97;5.45;;;;;;;7.32;82.05;98057.32;1737027;81;21541;-58
2022/01/05 14:25:57;;;;;;;9.60;6.20;;;;;;;7.47;82.06;98055.16;1740956;81;21183;-60
2022/01/05 14:28:34;;;;;;;6.53;5.47;;;;;;;7.63;81.96;98063.45;1742047;80;21064;-60
2022/01/05 14:31:06;;;;;;;8.63;5.62;;;;;;;7.73;82.01;98067.27;1738270;81;21169;-60
2022/01/05 14:33:40;;;;;;;7.92;5.80;;;;;;;7.78;82.19;98070.00;1742789;81;21803;-59
2022/01/05 14:36:27;;;;;;;7.65;6.15;;;;;;;7.90;81.97;98076.30;1729230;81;21550;-62
2022/01/05 14:39:10;;;;;;;10.15;6.55;;;;;;;8.02;81.92;98076.05;1738783;81;21513;-61
2022/01/05 14:41:50;;;;;;;7.55;6.30;;;;;;;8.08;81.67;98063.08;1736342;81;21525;-61
2022/01/05 14:44:26;;;;;;;7.97;6.10;;;;;;;8.13;81.54;98060.58;1735177;81;21527;-61
2022/01/05 14:46:57;;;;;;;8.18;6.55;;;;;;;8.25;81.19;98065.59;1742205;81;21873;-63
2022/01/05 14:49:23;;;;;;;10.75;6.92;;;;;;;8.32;81.02;98062.96;1727068;81;21526;-63
2022/01/05 14:51:50;;;;;;;7.70;6.67;;;;;;;8.35;80.77;98061.95;1737069;81;21545;-61
2022/01/05 14:54:19;;;;;;;7.95;6.47;;;;;;;8.35;80.57;98060.17;1734980;81;21534;-59
2022/01/05 14:56:46;;;;;;;8.18;6.85;;;;;;;8.39;80.27;98073.45;1729518;80;21589;-60
2022/01/05 14:59:13;;;;;;;9.08;6.60;;;;;;;8.46;79.85;98078.39;1735264;81;22256;-58
2022/01/05 15:01:40;;;;;;;8.00;6.28;;;;;;;8.44;79.77;98073.23;1734419;81;21548;-64
2022/01/05 15:04:07;;;;;;;9.23;6.97;;;;;;;8.45;79.86;98063.12;1736714;81;21578;-62
2022/01/05 15:06:35;;;;;;;;;;;;;;;8.44;79.89;98055.34;1739549;81;21506;-63
2022/01/05 15:09:03;;;;;;;7.80;6.03;;;;;;;8.49;79.52;98050.20;1738250;81;20200;-61
2022/01/05 15:11:31;;;;;;;7.58;6.58;;;;;;;8.53;79.72;98043.02;1691614;81;21504;-62
2022/01/05 15:13:57;;;;;;;9.55;6.50;;;;;;;8.51;79.98;98053.61;1734929;81;21060;-60
2022/01/05 15:16:24;;;;;;;9.23;6.75;;;;;;;8.44;80.01;98054.91;1724749;81;21114;-61
2022/01/05 15:18:50;;;;;;;8.25;6.53;;;;;;;8.38;80.17;98051.28;1727386;81;21524;-57
2022/01/05 15:21:17;;;;;;;7.70;6.40;;;;;;;8.35;80.29;98054.09;1730327;82;21628;-59
2022/01/05 15:23:44;;;;;;;7.42;5.92;;;;;;;8.38;80.18;98053.45;1725016;81;21818;-56
2022/01/05 15:26:11;;;;;;;8.27;7.03;;;;;;;8.41;80.39;98052.89;1724373;82;21504;-57
2022/01/05 15:28:43;;;;;;;9.50;7.30;;;;;;;8.35;80.48;98055.41;1710797;82;21561;-61
2022/01/05 15:31:11;;;;;;;13.65;9.90;;;;;;;8.28;80.60;98056.22;1719282;82;21500;-62
2022/01/05 15:33:39;;;;;;;13.43;9.13;;;;;;;8.27;80.75;98053.69;1712035;82;21574;-60
2022/01/05 15:36:06;;;;;;;21.52;11.65;;;;;;;8.33;80.70;98052.05;1720096;82;21500;-58
2022/01/05 15:38:33;;;;;;;22.30;14.30;;;;;;;8.32;80.74;98049.03;1717207;82;21538;-58
2022/01/05 15:41:00;;;;;;;18.75;14.20;;;;;;;8.26;80.98;98048.09;1718465;82;21059;-58
2022/01/05 15:43:27;;;;;;;17.35;12.30;;;;;;;8.24;81.05;98056.50;1710030;82;22359;-57
2022/01/05 15:45:54;;;;;;;23.12;16.32;;;;;;;8.24;81.01;98063.89;1718624;82;21604;-57
2022/01/05 15:48:20;;;;;;;34.03;23.02;;;;;;;8.27;80.97;98056.31;1709620;82;23165;-58
2022/01/05 15:50:48;;;;;;;32.67;21.60;;;;;;;8.25;80.97;98062.97;1715662;82;21760;-57
2022/01/05 15:53:15;;;;;;;30.68;21.60;;;;;;;8.16;81.10;98058.27;1715788;82;21549;-60
2022/01/05 15:55:50;;;;;;;30.60;19.87;;;;;;;8.12;81.21;98064.62;1715107;82;21525;-59
2022/01/05 16:03:47;;;;;;;24.52;17.07;;;;;;;8.18;81.12;98067.70;1723838;82;21488;-59
2022/01/05 16:06:15;;;;;;;19.10;13.95;;;;;;;8.14;81.09;98068.82;1720062;82;21617;-60
2022/01/05 16:08:42;;;;;;;15.65;11.22;;;;;;;8.11;81.07;98057.68;1718423;82;21581;-60
2022/01/05 16:11:08;;;;;;;13.50;9.70;;;;;;;8.07;81.10;98038.69;1721297;82;21471;-61
2022/01/05 16:13:35;;;;;;;13.75;10.32;;;;;;;8.06;81.14;98034.41;1660103;85;21779;-60
2022/01/05 16:16:02;;;;;;;15.68;11.65;;;;;;;8.03;81.19;98036.35;1717584;82;21551;-59
2022/01/05 16:18:28;;;;;;;15.93;12.47;;;;;;;7.94;81.34;98035.09;1722082;82;21005;-61
2022/01/05 16:20:55;;;;;;;15.15;11.55;;;;;;;7.84;81.55;98038.72;1712630;82;21552;-59
2022/01/05 16:23:22;;;;;;;15.85;12.20;;;;;;;7.79;81.79;98032.89;1715894;82;21534;-58
2022/01/05 16:25:49;;;;;;;18.77;13.05;;;;;;;7.82;81.83;98023.57;1709299;82;21830;-58
2022/01/05 16:28:15;;;;;;;17.92;13.75;;;;;;;7.78;81.99;98013.74;1720294;82;21038;-58
2022/01/05 16:30:43;;;;;;;15.32;12.85;;;;;;;7.74;82.11;98010.93;1720959;82;21509;-58
2022/01/05 16:33:10;;;;;;;;;;;;;;;7.64;82.19;98009.75;1729258;81;21081;-59
2022/01/05 16:35:37;;;;;;;16.50;13.30;;;;;;;7.61;82.02;98012.56;1721605;82;20477;-58
2022/01/05 16:38:03;;;;;;;16.93;13.60;;;;;;;7.67;81.99;98011.37;1720821;82;22210;-58
2022/01/05 16:40:30;;;;;;;17.82;14.63;;;;;;;7.67;82.04;98011.37;1719064;81;21477;-61
2022/01/05 16:42:57;;;;;;;18.65;15.38;;;;;;;7.63;82.10;98017.23;1711278;82;21622;-59
2022/01/05 16:45:25;;;;;;;20.70;15.48;;;;;;;7.62;82.13;98025.17;1710350;82;21672;-59
2022/01/05 16:47:57;;;;;;;19.52;14.90;;;;;;;7.58;82.15;98025.33;1721678;82;21153;-58
2022/01/05 16:50:21;;;;;;;23.38;15.58;;;;;;;7.59;82.20;98027.03;1707914;82;22193;-58
2022/01/05 16:52:48;;;;;;;21.02;15.93;;;;;;;7.60;82.31;98027.86;1723577;82;21608;-61
2022/01/05 16:55:18;;;;;;;20.92;15.48;;;;;;;7.59;82.39;98032.70;1726407;82;21512;-57
2022/01/05 17:00:36;;;;;;;18.20;15.30;;;;;;;7.59;82.48;98026.16;1720335;82;21593;-59
2022/01/05 17:03:04;;;;;;;18.23;14.63;;;;;;;7.68;82.42;98032.66;1721083;82;21812;-60
2022/01/05 17:05:37;;;;;;;20.45;16.27;;;;;;;7.69;82.37;98023.89;1720342;82;21554;-60
2022/01/05 17:08:05;;;;;;;20.48;15.23;;;;;;;7.65;82.35;98025.84;1721448;82;21583;-60
2022/01/05 17:10:34;;;;;;;20.20;15.98;;;;;;;7.58;82.36;98020.57;1643788;84;21538;-58
2022/01/05 17:13:02;;;;;;;20.82;16.32;;;;;;;7.55;82.36;98016.80;1725721;81;21593;-59
2022/01/05 17:15:29;;;;;;;20.48;16.52;;;;;;;7.60;82.35;98028.70;1720911;82;21844;-59
2022/01/05 17:17:56;;;;;;;22.13;16.65;;;;;;;7.59;82.38;98024.85;1725446;82;21697;-58
2022/01/05 17:20:24;;;;;;;24.25;18.10;;;;;;;7.52;82.50;98027.46;1722947;82;21722;-61
2022/01/05 17:22:51;;;;;;;24.15;16.80;;;;;;;7.47;82.64;98033.41;1727620;81;21582;-60
2022/01/05 17:25:18;;;;;;;21.17;16.50;;;;;;;7.47;82.76;98022.95;1728062;82;20999;-60
2022/01/05 17:27:47;;;;;;;22.60;17.05;;;;;;;7.52;82.86;98032.22;1727205;81;21858;-58
2022/01/05 17:30:15;;;;;;;22.55;16.95;;;;;;;7.57;82.89;98034.56;1727633;82;21540;-60
2022/01/05 17:32:42;;;;;;;20.90;17.20;;;;;;;7.57;82.93;98028.89;1725621;81;21585;-58
2022/01/05 17:35:09;;;;;;;20.57;16.85;;;;;;;7.57;82.93;98030.20;1731501;82;21533;-61
2022/01/05 17:37:36;;;;;;;18.10;15.83;;;;;;;7.58;82.80;98028.42;1725284;81;21601;-57
2022/01/05 17:40:03;;;;;;;18.82;15.63;;;;;;;7.62;82.63;98019.94;1718568;82;21678;-61
2022/01/05 17:42:30;;;;;;;19.55;15.95;;;;;;;7.62;82.62;98023.86;1733170;81;21605;-57
2022/01/05 17:44:57;;;;;;;20.05;14.70;;;;;;;7.58;82.61;98020.57;1718093;82;21530;-58
2022/01/05 17:47:24;;;;;;;18.77;14.53;;;;;;;7.54;82.60;98017.75;1723751;82;21571;-58
2022/01/05 17:49:51;;;;;;;17.57;13.40;;;;;;;7.52;82.58;98022.23;1724387;81;21600;-58
2022/01/05 17:52:18;;;;;;;18.27;13.90;;;;;;;7.58;82.50;98016.64;1734777;81;22129;-58
2022/01/05 17:54:45;;;;;;;18.80;14.87;;;;;;;7.60;82.43;98022.63;1722387;81;21741;-56
2022/01/05 17:57:12;;;;;;;20.30;15.88;;;;;;;7.57;82.38;98024.09;1716476;80;21080;-57
2022/01/05 17:59:39;;;;;;;17.43;14.73;;;;;;;7.51;82.42;98020.53;1717256;80;20986;-57
2022/01/05 18:02:05;;;;;;;21.60;15.85;;;;;;;7.49;82.50;98011.94;1720752;80;21610;-58
2022/01/05 18:04:32;;;;;;;19.10;14.53;;;;;;;7.56;82.50;98021.13;1724265;80;22034;-57
2022/01/05 18:06:59;;;;;;;22.40;16.30;;;;;;;7.54;82.53;98026.44;1722269;81;21545;-57
2022/01/05 18:09:28;;;;;;;19.50;15.70;;;;;;;7.51;82.61;98023.98;1720120;80;21508;-57
2022/01/05 18:11:56;;;;;;;19.77;15.20;;;;;;;7.47;82.69;98023.78;1720402;81;21543;-57
2022/01/05 18:14:24;;;;;;;20.88;15.75;;;;;;;7.48;82.70;98025.92;1718125;80;21557;-57
2022/01/05 18:16:54;;;;;;;25.43;18.87;;;;;;;7.53;82.62;98024.73;1722816;82;22037;-56
2022/01/05 18:19:21;;;;;;;23.38;19.23;;;;;;;7.55;82.62;98019.42;1718878;82;21557;-57
2022/01/05 18:21:48;;;;;;;25.80;20.33;;;;;;;7.48;82.71;98016.77;1712919;82;21536;-57
2022/01/05 18:24:15;;;;;;;23.00;17.67;;;;;;;7.44;82.86;98008.72;1710661;80;21625;-57
2022/01/05 18:26:42;;;;;;;23.38;17.73;;;;;;;7.40;82.84;98007.61;1652649;84;21587;-57
2022/01/05 18:29:10;;;;;;;21.17;17.02;;;;;;;7.45;82.74;98012.56;1716700;80;22197;-57
2022/01/05 18:31:39;;;;;;;;;;;;;;;7.43;82.74;98008.36;1713218;82;21489;-57
2022/01/05 18:34:06;;;;;;;27.15;16.87;;;;;;;7.36;82.75;98006.54;1707855;80;20518;-57
2022/01/05 18:36:33;;;;;;;19.83;15.03;;;;;;;7.24;82.94;97997.61;1707515;80;21122;-56
2022/01/05 18:39:01;;;;;;;19.20;13.50;;;;;;;7.17;83.25;97996.27;1719039;80;21993;-59
2022/01/05 18:41:28;;;;;;;19.55;14.47;;;;;;;7.21;83.35;98001.69;1713748;82;21804;-57
2022/01/05 18:43:55;;;;;;;22.90;15.70;;;;;;;7.19;83.37;97986.56;1719625;82;21534;-57
2022/01/05 18:46:23;;;;;;;20.30;15.32;;;;;;;7.13;83.58;97985.60;1712995;82;21562;-58
2022/01/05 18:48:52;;;;;;;26.35;16.40;;;;;;;7.07;83.77;97984.17;1713851;82;22242;-57
2022/01/05 18:51:19;;;;;;;20.43;14.10;;;;;;;7.04;83.80;97971.26;1707355;82;21570;-57
2022/01/05 18:53:46;;;;;;;21.03;15.97;;;;;;;7.05;83.79;97976.05;1724488;82;21847;-57
2022/01/05 18:56:13;;;;;;;18.62;14.43;;;;;;;6.98;83.87;97972.91;1713790;81;21530;-57
2022/01/05 18:58:39;;;;;;;21.65;15.98;;;;;;;6.91;84.20;97963.27;1713181;82;21559;-57
2022/01/05 19:01:06;;;;;;;19.90;15.68;;;;;;;6.87;84.27;97966.95;1720120;80;21692;-57
2022/01/05 19:03:33;;;;;;;23.40;16.25;;;;;;;6.82;84.36;97972.91;1711702;80;21538;-57
2022/01/05 19:06:00;;;;;;;20.15;16.15;;;;;;;6.81;84.24;97962.08;1717102;82;21767;-57
2022/01/05 19:08:26;;;;;;;22.20;16.25;;;;;;;6.81;84.32;97962.08;1717920;82;21526;-60
2022/01/05 19:10:54;;;;;;;20.17;15.72;;;;;;;6.77;84.42;97961.39;1709673;82;21654;-58
2022/01/05 19:13:21;;;;;;;21.85;17.15;;;;;;;6.76;84.52;97954.94;1716850;80;21550;-57
2022/01/05 19:15:47;;;;;;;22.73;17.05;;;;;;;6.75;84.54;97943.66;1712473;81;21520;-57
2022/01/05 19:18:16;;;;;;;24.30;18.05;;;;;;;6.81;84.41;97936.78;1693478;82;21754;-61
2022/01/05 19:20:43;;;;;;;24.43;18.10;;;;;;;6.87;84.27;97934.30;1698001;82;21731;-57
2022/01/05 19:23:09;;;;;;;23.60;18.57;;;;;;;6.93;84.23;97935.73;1695092;82;22008;-57
2022/01/05 19:25:36;;;;;;;24.55;18.77;;;;;;;6.91;84.21;97941.06;1698088;82;21571;-58
2022/01/05 19:28:04;;;;;;;24.85;18.37;;;;;;;6.91;84.00;97937.14;1694907;82;21632;-57
2022/01/05 19:30:31;;;;;;;25.95;18.55;;;;;;;6.89;83.87;97931.61;1686149;82;21805;-58
2022/01/05 19:32:58;;;;;;;27.22;19.10;;;;;;;6.94;83.47;97946.11;1697014;82;21675;-57
2022/01/05 19:35:25;;;;;;;27.35;19.48;;;;;;;6.97;83.34;97942.50;1687279;83;21546;-57
2022/01/05 19:37:52;;;;;;;26.27;19.57;;;;;;;6.98;83.36;97951.53;1631953;86;21539;-58
2022/01/05 19:40:19;;;;;;;27.22;19.80;;;;;;;6.95;83.22;97946.94;1630867;86;21552;-59
2022/01/05 19:42:46;;;;;;;27.33;19.03;;;;;;;6.90;83.12;97942.45;1634459;86;21589;-56
2022/01/05 19:45:14;;;;;;;24.00;18.70;;;;;;;6.88;83.14;97939.91;1639583;86;21114;-56
2022/01/05 19:47:41;;;;;;;25.92;18.40;;;;;;;6.94;83.05;97944.80;1637460;86;21570;-57
2022/01/05 19:50:10;;;;;;;25.35;19.17;;;;;;;6.96;83.11;97942.11;1644520;86;21512;-56
2022/01/05 19:52:45;;;;;;;24.07;18.12;;;;;;;6.95;83.13;97943.02;1639628;86;21594;-56
2022/01/05 19:55:33;;;;;;;24.37;19.50;;;;;;;6.90;83.04;97938.53;1642828;86;22144;-56
2022/01/05 19:57:39;;;;;;;26.50;19.45;;;;;;;6.90;82.96;97939.84;1644718;86;21626;-56
2022/01/05 20:00:10;;;;;;;26.50;18.20;;;;;;;6.95;82.75;97942.58;1637782;86;21121;-57
2022/01/05 20:02:36;;;;;;;27.58;19.27;;;;;;;6.96;82.70;97940.80;1639721;86;21069;-56
2022/01/05 20:05:04;;;;;;;25.12;18.80;;;;;;;6.92;82.57;97934.89;1638683;86;21558;-57
2022/01/05 20:07:31;;;;;;;24.87;18.73;;;;;;;6.86;82.62;97924.80;1639949;86;21808;-57
2022/01/05 20:10:00;;;;;;;28.17;20.27;;;;;;;6.83;82.66;97919.25;1640918;86;21638;-56
2022/01/05 20:12:26;;;;;;;23.38;18.67;;;;;;;6.87;82.48;97917.31;1638913;86;21620;-59
2022/01/05 20:14:53;;;;;;;26.33;19.12;;;;;;;6.83;82.40;97913.20;1639505;86;21536;-59
2022/01/05 20:17:20;;;;;;;23.57;19.87;;;;;;;6.71;82.49;97915.19;1684141;83;21064;-58
2022/01/05 20:19:47;;;;;;;25.23;19.07;;;;;;;6.66;82.70;97915.42;1724753;82;21621;-58
2022/01/05 20:22:14;;;;;;;24.87;18.75;;;;;;;6.59;82.72;97917.54;1727326;81;21803;-58
2022/01/05 20:24:41;;;;;;;23.80;19.77;;;;;;;6.61;82.71;97914.82;1715021;82;21502;-61
2022/01/05 20:27:08;;;;;;;26.35;19.70;;;;;;;6.63;82.74;97915.61;1724001;81;21553;-61
2022/01/05 20:29:35;;;;;;;26.68;19.42;;;;;;;6.60;82.80;97907.93;1722891;82;21072;-60
2022/01/05 20:32:02;;;;;;;27.85;18.73;;;;;;;6.53;82.95;97907.41;1724371;81;22016;-61
2022/01/05 20:34:30;;;;;;;26.25;18.95;;;;;;;6.53;83.10;97907.41;1720850;81;21589;-63
2022/01/05 20:36:57;;;;;;;;;;;;;;;6.59;83.02;97912.32;1724617;81;21613;-62
2022/01/05 20:39:24;;;;;;;31.68;20.08;;;;;;;6.60;83.08;97915.77;1728670;81;20497;-62
2022/01/05 20:41:51;;;;;;;29.12;21.27;;;;;;;6.53;83.32;97899.57;1730360;81;21567;-57
2022/01/05 20:44:17;;;;;;;28.15;19.32;;;;;;;6.46;83.40;97898.68;1734271;80;22171;-60
2022/01/05 20:46:44;;;;;;;28.70;21.62;;;;;;;6.38;83.49;97893.41;1727157;81;21677;-60
2022/01/05 20:49:13;;;;;;;30.77;21.05;;;;;;;6.42;83.46;97897.56;1731307;82;21644;-60
2022/01/05 20:51:40;;;;;;;30.57;22.10;;;;;;;6.43;83.39;97898.39;1729248;80;21517;-61
2022/01/05 20:54:07;;;;;;;34.00;24.18;;;;;;;6.38;83.57;97899.09;1731846;82;21057;-61
2022/01/05 20:56:35;;;;;;;31.77;22.27;;;;;;;6.33;84.24;97901.97;1730852;81;21823;-61
2022/01/05 20:59:02;;;;;;;38.70;23.85;;;;;;;6.31;84.93;97901.20;1730629;81;21463;-58
2022/01/05 21:01:29;;;;;;;34.23;22.35;;;;;;;6.40;85.17;97906.38;1727944;82;21503;-57
2022/01/05 21:03:57;;;;;;;37.03;23.13;;;;;;;6.38;85.81;97899.93;1734244;81;21566;-56
2022/01/05 21:06:23;;;;;;;;;;;;;;;6.28;87.08;97920.10;1734624;82;21518;-59
2022/01/05 21:08:50;;;;;;;32.30;21.27;;;;;;;6.17;87.78;97917.58;1725268;82;21747;-59
2022/01/05 21:11:18;;;;;;;30.70;19.85;;;;;;;6.15;87.78;97914.67;1734927;81;21601;-60
2022/01/05 21:13:45;;;;;;;33.65;20.48;;;;;;;6.19;87.57;97917.03;1729004;81;21011;-60
2022/01/05 21:16:14;;;;;;;29.10;18.57;;;;;;;6.19;87.91;97917.03;1732964;81;21031;-59
2022/01/05 21:18:43;;;;;;;26.45;20.10;;;;;;;6.09;88.62;97905.87;1711540;82;21471;-59
2022/01/05 21:21:09;;;;;;;32.88;22.25;;;;;;;6.01;88.08;97902.36;1703432;82;21848;-60
2022/01/05 21:23:36;;;;;;;31.60;20.92;;;;;;;5.98;88.08;97898.59;1717206;82;21055;-61
2022/01/05 21:26:03;;;;;;;29.18;20.62;;;;;;;5.95;88.26;97900.02;1721617;82;21586;-60
2022/01/05 21:28:29;;;;;;;28.25;20.90;;;;;;;5.91;88.21;97897.19;1717231;81;21491;-57
2022/01/05 21:30:56;;;;;;;35.65;22.10;;;;;;;5.84;88.36;97897.52;1718853;82;21539;-57
2022/01/05 21:33:23;;;;;;;35.40;20.77;;;;;;;5.74;90.61;97915.84;1712746;82;21869;-57
2022/01/05 21:35:51;;;;;;;32.13;20.02;;;;;;;5.61;91.35;97913.47;1721194;82;21081;-58
2022/01/05 21:38:18;;;;;;;37.63;23.27;;;;;;;5.68;90.51;97911.41;1724373;82;21708;-60
2022/01/05 21:40:45;;;;;;;31.20;21.77;;;;;;;5.72;89.91;97903.81;1720769;82;21547;-56
2022/01/05 21:43:12;;;;;;;30.83;21.40;;;;;;;5.70;89.29;97899.97;1707368;82;21594;-56
2022/01/05 21:45:39;;;;;;;32.63;20.20;;;;;;;5.67;89.76;97897.54;1720908;82;21905;-58
2022/01/05 21:48:06;;;;;;;30.72;19.95;;;;;;;5.65;89.88;97904.56;1728333;82;21665;-59
2022/01/05 21:50:34;;;;;;;26.48;18.77;;;;;;;5.67;89.72;97898.84;1720819;82;21479;-57
2022/01/05 21:53:01;;;;;;;;;;;;;;;5.65;89.08;97896.74;1720321;82;21570;-57
2022/01/05 21:55:30;;;;;;;24.45;18.00;;;;;;;5.59;88.88;97897.06;1716420;82;20471;-57
2022/01/05 21:57:57;;;;;;;28.40;19.00;;;;;;;5.50;88.94;97891.00;1729035;82;21685;-59
2022/01/05 22:00:24;;;;;;;31.13;21.40;;;;;;;5.48;88.77;97879.81;1726389;82;21618;-60
2022/01/05 22:02:51;;;;;;;43.90;26.62;;;;;;;5.53;88.40;97883.04;1713961;82;21177;-57
2022/01/05 22:05:18;;;;;;;80.50;34.13;;;;;;;5.51;88.23;97881.81;1720462;82;21590;-59
2022/01/05 22:07:50;;;;;;;71.55;33.73;;;;;;;5.40;88.25;97862.78;1722254;82;21061;-59
2022/01/05 22:10:18;;;;;;;58.95;29.20;;;;;;;5.36;88.21;97849.53;1718317;82;21051;-62
2022/01/05 22:12:45;;;;;;;60.08;30.68;;;;;;;5.36;88.36;97857.35;1724081;82;21490;-60
2022/01/05 22:15:12;;;;;;;46.73;26.05;;;;;;;5.42;88.20;97887.01;1721976;82;21636;-60
2022/01/05 22:17:39;;;;;;;43.00;22.95;;;;;;;5.33;87.99;97907.05;1715571;82;21532;-60
2022/01/05 22:20:07;;;;;;;51.27;24.13;;;;;;;5.19;88.23;97914.67;1721049;82;21536;-59
2022/01/05 22:22:34;;;;;;;27.75;19.73;;;;;;;5.03;88.58;97914.59;1713111;82;21804;-58
2022/01/05 22:25:02;;;;;;;28.55;19.30;;;;;;;4.86;88.96;97911.48;1712460;82;21534;-57
2022/01/05 22:27:29;;;;;;;29.40;20.57;;;;;;;4.88;89.48;97918.30;1719449;82;21483;-61
2022/01/05 22:29:55;;;;;;;25.25;19.42;;;;;;;4.87;89.51;97920.50;1714323;82;21696;-60
2022/01/05 22:32:22;;;;;;;25.90;20.27;;;;;;;4.84;89.61;97922.40;1721329;82;21060;-62
2022/01/05 22:34:49;;;;;;;24.10;17.87;;;;;;;4.84;89.60;97919.80;1723973;82;21807;-58
2022/01/05 22:37:16;;;;;;;26.80;18.00;;;;;;;4.88;89.61;97918.30;1725293;82;21634;-60
